Time;durP1;ratioP1;P1;durP2;ratioP2;P2;SDS_P1;SDS_P2;PMS_P1;PMS_P2;Temp;Humidity;BMP_temperature;BMP_pressure;BME280_temperature;BME280_humidity;BME280_pressure;Samples;Min_cycle;Max_cycle;Signal;HPM_P1;HPM_P2
2022/05/06 00:01:13;;;;;;;9.40;4.05;;;;;;;5.80;57.74;101901.84;1760133;81;21146;-78
2022/05/06 00:03:39;;;;;;;10.40;4.45;;;;;;;5.73;57.86;101901.10;1761454;81;20853;-73
2022/05/06 00:06:06;;;;;;;8.15;4.58;;;;;;;5.68;57.70;101901.64;1762257;80;21479;-73
2022/05/06 00:08:32;;;;;;;8.90;4.80;;;;;;;5.63;57.98;101900.87;1759398;81;20935;-78
2022/05/06 00:10:59;;;;;;;7.00;4.25;;;;;;;5.60;58.18;101904.82;1758364;81;20920;-78
2022/05/06 00:13:26;;;;;;;7.95;4.20;;;;;;;5.58;58.36;101904.87;1758608;81;21198;-78
2022/05/06 00:15:53;;;;;;;7.22;4.62;;;;;;;5.53;58.66;101906.67;1758264;81;20896;-77
2022/05/06 00:18:20;;;;;;;8.53;4.58;;;;;;;5.49;58.76;101908.95;1758377;81;20931;-77
2022/05/06 00:20:47;;;;;;;9.15;4.53;;;;;;;5.47;59.09;101912.44;1759151;81;20932;-78
2022/05/06 00:23:14;;;;;;;7.40;4.83;;;;;;;5.44;59.32;101915.10;1758781;81;20991;-78
2022/05/06 00:25:41;;;;;;;8.15;4.90;;;;;;;5.42;59.49;101919.47;1758365;81;21144;-77
2022/05/06 00:28:07;;;;;;;7.95;4.03;;;;;;;5.39;59.72;101919.09;1758443;80;20936;-77
2022/05/06 00:30:35;;;;;;;4.75;3.62;;;;;;;5.38;60.15;101919.54;1758486;81;20932;-78
2022/05/06 00:33:02;;;;;;;9.25;4.30;;;;;;;5.38;60.65;101921.26;1759548;80;20889;-78
2022/05/06 00:35:29;;;;;;;7.22;5.30;;;;;;;5.39;60.64;101916.48;1760036;81;20884;-77
2022/05/06 00:37:55;;;;;;;6.70;4.65;;;;;;;5.44;59.66;101921.61;1759047;81;21136;-78
2022/05/06 00:40:22;;;;;;;6.28;4.40;;;;;;;5.51;60.08;101921.91;1759156;81;20880;-78
2022/05/06 00:42:50;;;;;;;7.40;4.60;;;;;;;5.56;60.49;101920.95;1758145;81;20884;-79
2022/05/06 00:45:16;;;;;;;6.17;4.40;;;;;;;5.59;60.66;101927.39;1758071;81;20936;-77
2022/05/06 00:47:43;;;;;;;6.00;4.78;;;;;;;5.61;60.80;101926.07;1758013;81;21334;-78
2022/05/06 00:50:10;;;;;;;30.37;14.25;;;;;;;5.60;60.87;101924.34;1758317;81;21184;-78
2022/05/06 00:52:36;;;;;;;11.85;5.50;;;;;;;5.55;60.51;101923.12;1757938;80;21464;-77
2022/05/06 00:55:04;;;;;;;10.05;5.33;;;;;;;5.53;60.76;101931.39;1758088;81;20927;-77
2022/05/06 00:57:31;;;;;;;10.50;5.60;;;;;;;5.50;60.81;101928.86;1758449;80;20940;-77
2022/05/06 01:02:44;;;;;;;10.65;5.67;;;;;;;5.39;61.03;101926.44;1765732;81;21257;-76
2022/05/06 01:05:12;;;;;;;6.90;4.47;;;;;;;5.34;61.20;101929.58;1758495;81;20841;-77
2022/05/06 01:07:41;;;;;;;8.78;5.20;;;;;;;5.31;61.45;101925.70;1758158;81;20837;-78
2022/05/06 01:10:09;;;;;;;5.12;4.45;;;;;;;5.28;61.75;101937.92;1766395;81;20869;-78
2022/05/06 01:12:36;;;;;;;9.35;5.08;;;;;;;5.24;62.07;101933.65;1758125;81;21145;-78
2022/05/06 01:15:20;;;;;;;10.18;5.12;;;;;;;5.18;62.40;101931.58;1721768;82;21177;-78
2022/05/06 01:17:50;;;;;;;25.08;13.35;;;;;;;5.16;62.62;101938.99;1722087;83;20895;-78
2022/05/06 01:20:17;;;;;;;15.03;6.97;;;;;;;5.15;60.91;101935.95;1704423;84;20948;-78
2022/05/06 01:22:52;;;;;;;9.53;6.75;;;;;;;5.20;61.36;101931.53;1704169;84;20992;-78
2022/05/06 01:25:20;;;;;;;8.95;6.10;;;;;;;5.24;61.80;101937.10;1704124;84;20905;-77
2022/05/06 01:28:01;;;;;;;18.05;8.45;;;;;;;5.30;62.01;101938.76;1703959;84;20877;-77
2022/05/06 01:30:42;;;;;;;10.98;6.70;;;;;;;5.32;61.15;101938.30;1702339;84;21020;-78
2022/05/06 01:33:12;;;;;;;12.78;8.38;;;;;;;5.34;61.18;101936.08;1700789;84;20937;-77
2022/05/06 01:35:47;;;;;;;12.93;7.35;;;;;;;5.34;61.53;101936.53;1700676;84;20917;-78
2022/05/06 01:38:28;;;;;;;12.53;7.28;;;;;;;5.35;60.38;101941.68;1700615;84;21561;-77
2022/05/06 01:41:02;;;;;;;32.80;17.10;;;;;;;5.35;59.93;101936.48;1700792;84;21238;-78
2022/05/06 01:43:39;;;;;;;17.90;10.68;;;;;;;5.41;58.94;101935.53;1700110;84;20933;-78
2022/05/06 01:46:06;;;;;;;42.83;20.90;;;;;;;5.47;59.71;101931.95;1701166;84;20948;-78
2022/05/06 01:48:35;;;;;;;31.52;17.82;;;;;;;5.51;57.61;101934.47;1701044;84;21020;-77
2022/05/06 01:51:02;;;;;;;22.27;14.38;;;;;;;5.61;57.72;101937.78;1680780;84;21511;-78
2022/05/06 01:53:30;;;;;;;36.65;21.10;;;;;;;5.70;56.96;101940.21;1700789;84;21264;-78
2022/05/06 01:55:57;;;;;;;43.83;22.67;;;;;;;5.80;55.58;101940.88;1700683;84;21543;-79
2022/05/06 01:58:26;;;;;;;41.18;22.07;;;;;;;5.90;54.34;101943.74;1707679;83;20916;-78
2022/05/06 02:00:54;;;;;;;43.52;22.45;;;;;;;6.05;53.43;101937.42;1708500;83;20921;-78
2022/05/06 02:06:11;;;;;;;41.18;21.60;;;;;;;6.32;53.04;101942.50;1708508;84;21285;-79
2022/05/06 02:08:40;;;;;;;43.52;23.73;;;;;;;6.41;52.96;101945.36;1708475;84;21355;-78
2022/05/06 02:11:08;;;;;;;41.90;23.47;;;;;;;6.48;52.08;101949.55;1708416;83;20953;-78
2022/05/06 02:13:34;;;;;;;40.78;22.45;;;;;;;6.54;51.54;101950.72;1708630;84;20945;-77
2022/05/06 02:16:07;;;;;;;44.77;22.77;;;;;;;6.62;51.11;101952.69;1692466;84;20936;-77
2022/05/06 02:18:35;;;;;;;40.05;23.18;;;;;;;6.69;51.02;101963.84;1707008;84;21183;-78
2022/05/06 02:21:19;;;;;;;29.35;18.40;;;;;;;6.75;51.68;101964.16;1706474;84;20929;-78
2022/05/06 02:24:02;;;;;;;37.30;21.45;;;;;;;6.76;51.87;101968.05;1706973;84;20925;-79
2022/05/06 02:26:29;;;;;;;38.73;19.17;;;;;;;6.78;50.74;101967.58;1708457;83;20861;-77
2022/05/06 02:28:58;;;;;;;40.95;20.17;;;;;;;6.83;51.68;101972.69;1708676;83;20937;-78
2022/05/06 02:34:16;;;;;;;38.13;20.23;;;;;;;6.85;52.53;101976.11;1700817;84;20958;-78
2022/05/06 02:36:41;;;;;;;28.17;17.27;;;;;;;6.85;53.67;101985.24;1700703;84;21506;-78
2022/05/06 02:39:07;;;;;;;37.78;19.45;;;;;;;6.84;54.82;101986.12;1701257;84;21498;-77
2022/05/06 02:41:35;;;;;;;41.88;23.20;;;;;;;6.81;56.00;101990.95;1700942;84;20945;-78
2022/05/06 02:44:04;;;;;;;30.62;18.05;;;;;;;6.78;56.36;101993.65;1700991;84;21235;-78
2022/05/06 02:46:36;;;;;;;34.58;19.85;;;;;;;6.74;57.29;101994.59;1700927;83;20874;-78
2022/05/06 02:49:04;;;;;;;32.33;19.55;;;;;;;6.71;57.55;101995.95;1700941;84;20961;-78
2022/05/06 02:51:32;;;;;;;31.73;18.35;;;;;;;6.66;57.94;101997.81;1700968;84;20960;-78
2022/05/06 02:54:00;;;;;;;33.73;19.20;;;;;;;6.62;58.22;101998.31;1701149;83;21423;-76
2022/05/06 02:56:34;;;;;;;31.73;20.08;;;;;;;6.56;58.40;102007.58;1701068;84;21353;-78
2022/05/06 02:59:04;;;;;;;40.05;19.90;;;;;;;6.51;58.48;102011.16;1700960;84;20898;-78
2022/05/06 03:01:33;;;;;;;31.27;18.27;;;;;;;6.46;58.85;102010.41;1700948;84;20937;-78
2022/05/06 03:04:01;;;;;;;33.00;17.37;;;;;;;6.42;59.27;102019.59;1701059;84;20921;-79
2022/05/06 03:06:28;;;;;;;27.67;17.35;;;;;;;6.39;59.73;102019.64;1701081;84;21362;-78
2022/05/06 03:08:55;;;;;;;32.83;16.93;;;;;;;6.36;59.81;102023.63;1701870;84;21944;-79
2022/05/06 03:11:23;;;;;;;27.82;18.37;;;;;;;6.35;60.20;102027.55;1703130;83;20905;-77
2022/05/06 03:13:51;;;;;;;31.80;16.77;;;;;;;6.33;59.97;102028.88;1701672;83;20941;-77
2022/05/06 03:16:20;;;;;;;29.10;17.17;;;;;;;6.35;60.72;102030.16;1703097;84;21008;-76
2022/05/06 03:18:47;;;;;;;32.42;18.20;;;;;;;6.37;60.51;102029.23;1702950;83;20941;-77
2022/05/06 03:21:13;;;;;;;37.45;17.95;;;;;;;6.44;61.06;102032.58;1701119;84;21117;-79
2022/05/06 03:23:40;;;;;;;46.83;18.57;;;;;;;6.54;61.01;102030.66;1701202;83;20960;-79
2022/05/06 03:26:08;;;;;;;35.90;20.17;;;;;;;6.67;60.27;102029.52;1700921;83;21006;-78
2022/05/06 03:28:35;;;;;;;29.77;16.57;;;;;;;6.81;60.59;102035.28;1700953;84;20988;-78
2022/05/06 03:31:03;;;;;;;36.55;21.65;;;;;;;6.91;60.04;102034.63;1701067;83;21486;-78
2022/05/06 03:33:38;;;;;;;40.15;21.07;;;;;;;7.01;57.73;102029.63;1700772;84;21291;-78
2022/05/06 03:36:06;;;;;;;35.10;20.90;;;;;;;7.13;57.07;102038.92;1700368;83;20929;-78
2022/05/06 03:38:36;;;;;;;44.30;24.35;;;;;;;7.25;55.18;102041.72;1703978;84;20929;-78
2022/05/06 03:41:03;;;;;;;38.40;22.45;;;;;;;7.36;55.56;102039.71;1701236;83;20896;-79
2022/05/06 03:43:29;;;;;;;39.00;21.73;;;;;;;7.49;54.79;102052.00;1701372;83;20901;-79
2022/05/06 03:45:58;;;;;;;47.13;22.82;;;;;;;7.60;54.17;102053.93;1701057;84;21183;-79
2022/05/06 03:48:27;;;;;;;40.28;22.30;;;;;;;7.70;52.08;102052.39;1701155;84;20988;-79
2022/05/06 03:53:41;;;;;;;47.70;22.32;;;;;;;7.92;51.05;102059.23;1701254;84;20968;-78
2022/05/06 03:56:08;;;;;;;38.02;21.87;;;;;;;8.02;50.73;102054.16;1701567;84;21560;-79
2022/05/06 03:58:37;;;;;;;39.15;21.52;;;;;;;8.14;50.50;102051.67;1700901;84;21188;-79
2022/05/06 04:01:07;;;;;;;39.48;22.17;;;;;;;8.25;49.22;102064.88;1700922;83;21442;-78
2022/05/06 04:03:34;;;;;;;46.88;23.15;;;;;;;8.36;49.11;102058.05;1700987;84;21451;-79
2022/05/06 04:06:01;;;;;;;38.15;23.77;;;;;;;8.47;48.64;102062.56;1701290;84;20953;-78
2022/05/06 04:08:31;;;;;;;46.13;23.57;;;;;;;8.67;48.50;102055.46;1701151;83;21411;-78
2022/05/06 04:10:58;;;;;;;52.25;25.62;;;;;;;9.00;47.85;102064.50;1701190;84;21190;-79
2022/05/06 04:13:25;;;;;;;37.33;22.77;;;;;;;9.42;46.33;102061.92;1701102;84;21501;-79
2022/05/06 04:15:52;;;;;;;44.63;22.60;;;;;;;9.88;45.31;102053.86;1701135;83;20850;-77
2022/05/06 04:18:19;;;;;;;34.50;19.95;;;;;;;10.38;44.38;102051.25;1701294;84;20874;-79
2022/05/06 04:23:35;;;;;;;43.10;21.20;;;;;;;11.48;41.02;102051.88;1701045;84;21211;-78
2022/05/06 04:26:08;;;;;;;36.83;19.92;;;;;;;12.02;40.05;102057.08;1701107;84;20984;-79
2022/05/06 04:28:37;;;;;;;38.80;21.02;;;;;;;12.50;38.52;102052.38;1701112;84;21602;-77
2022/05/06 04:31:04;;;;;;;38.02;21.45;;;;;;;12.88;39.23;102061.13;1703437;83;20988;-78
2022/05/06 04:33:32;;;;;;;33.08;20.20;;;;;;;13.27;36.94;102060.16;1709098;84;21478;-79
2022/05/06 04:35:59;;;;;;;39.10;20.95;;;;;;;13.79;36.25;102060.74;1709341;84;21806;-81
2022/05/06 04:38:28;;;;;;;36.85;20.00;;;;;;;13.79;36.25;102060.74;1709741;84;20949;-79
2022/05/06 04:40:58;;;;;;;31.93;19.60;;;;;;;14.19;35.43;102066.14;1709164;84;20988;-79
2022/05/06 04:43:26;;;;;;;36.40;20.12;;;;;;;14.19;35.43;102066.14;1690709;83;21438;-78
2022/05/06 04:45:53;;;;;;;35.13;19.52;;;;;;;14.36;34.69;102063.08;1708995;84;20905;-78
2022/05/06 04:48:21;;;;;;;27.90;18.57;;;;;;;14.54;34.53;102066.52;1708996;84;21170;-78
2022/05/06 04:50:48;;;;;;;35.30;19.17;;;;;;;14.70;33.43;102073.58;1709295;84;20996;-80
2022/05/06 04:53:15;;;;;;;34.73;19.07;;;;;;;14.99;33.34;102071.14;1709039;84;20976;-79
2022/05/06 04:55:49;;;;;;;38.70;20.02;;;;;;;14.99;33.34;102071.14;1708868;84;20960;-79
2022/05/06 04:58:18;;;;;;;32.35;18.55;;;;;;;15.28;32.48;102072.14;1708910;83;21366;-80
2022/05/06 05:00:44;;;;;;;29.60;18.75;;;;;;;15.67;32.36;102069.94;1709145;84;21699;-80
2022/05/06 05:03:11;;;;;;;29.45;19.77;;;;;;;16.13;31.28;102074.71;1708969;83;20940;-79
2022/05/06 05:05:40;;;;;;;34.10;21.20;;;;;;;16.52;30.26;102070.59;1708826;84;20948;-79
2022/05/06 05:08:09;;;;;;;33.05;19.52;;;;;;;16.90;30.39;102071.34;1708872;84;20941;-79
2022/05/06 05:10:37;;;;;;;34.25;21.45;;;;;;;17.28;29.70;102069.83;1709012;84;20889;-79
2022/05/06 05:13:07;;;;;;;35.03;20.02;;;;;;;17.57;29.56;102074.54;1709160;83;20996;-80
2022/05/06 05:15:35;;;;;;;30.90;19.48;;;;;;;17.86;29.32;102081.06;1709003;83;21000;-78
2022/05/06 05:18:02;;;;;;;33.73;18.98;;;;;;;18.20;28.64;102070.30;1709382;83;20901;-81
2022/05/06 05:20:30;;;;;;;29.98;18.20;;;;;;;18.49;28.54;102075.39;1709569;83;20917;-77
2022/05/06 05:22:57;;;;;;;37.70;19.62;;;;;;;18.77;27.41;102079.61;1709785;84;20921;-79
2022/05/06 05:25:23;;;;;;;30.82;19.37;;;;;;;19.07;28.02;102079.23;1709512;84;21403;-79
2022/05/06 05:27:50;;;;;;;25.85;18.05;;;;;;;19.49;27.79;102077.52;1708964;84;21396;-78
2022/05/06 05:30:19;;;;;;;27.13;18.00;;;;;;;19.85;26.32;102073.45;1707952;84;21008;-80
2022/05/06 05:32:47;;;;;;;30.23;18.92;;;;;;;19.94;25.53;102069.22;1708748;84;20973;-80
2022/05/06 05:35:13;;;;;;;26.07;18.40;;;;;;;20.00;26.02;102069.24;1709017;84;21424;-79
2022/05/06 05:37:42;;;;;;;30.70;18.00;;;;;;;20.22;26.00;102076.42;1708582;83;21216;-78
2022/05/06 05:40:10;;;;;;;33.38;17.20;;;;;;;20.37;25.64;102071.23;1708719;84;20889;-80
2022/05/06 05:42:39;;;;;;;28.30;17.10;;;;;;;20.55;25.88;102067.60;1709121;84;21427;-79
2022/05/06 05:48:19;;;;;;;23.65;16.70;;;;;;;20.97;25.08;102071.83;1708923;84;20854;-80
2022/05/06 05:50:37;;;;;;;30.80;17.37;;;;;;;21.28;24.63;102074.66;1707121;84;22231;-79
2022/05/06 05:53:05;;;;;;;25.37;16.77;;;;;;;21.50;24.33;102074.61;1708827;84;21462;-78
2022/05/06 05:55:34;;;;;;;25.90;16.27;;;;;;;21.64;24.49;102080.61;1709027;83;20957;-79
2022/05/06 05:58:03;;;;;;;27.42;17.40;;;;;;;21.86;23.98;102083.16;1708632;84;20917;-79
2022/05/06 06:00:29;;;;;;;24.98;16.35;;;;;;;22.11;23.87;102083.74;1690699;83;21335;-79
2022/05/06 06:02:57;;;;;;;26.35;15.38;;;;;;;22.37;23.29;102089.55;1709921;84;21242;-80
2022/05/06 06:05:23;;;;;;;23.30;14.45;;;;;;;22.53;23.47;102081.87;1708993;84;21411;-79
2022/05/06 06:07:50;;;;;;;26.20;14.63;;;;;;;22.68;22.59;102080.19;1709042;84;20944;-79
2022/05/06 06:10:18;;;;;;;26.62;15.13;;;;;;;22.78;22.73;102082.88;1709317;83;20889;-79
2022/05/06 06:12:45;;;;;;;20.92;13.53;;;;;;;22.85;23.20;102081.34;1709071;84;21422;-80
2022/05/06 06:15:13;;;;;;;20.88;13.60;;;;;;;22.94;22.64;102086.73;1708773;84;21170;-78
2022/05/06 06:17:39;;;;;;;22.37;14.23;;;;;;;23.12;22.97;102080.72;1709233;84;20945;-78
2022/05/06 06:20:09;;;;;;;23.07;13.95;;;;;;;23.45;22.71;102080.82;1709239;84;21005;-78
2022/05/06 06:22:37;;;;;;;22.98;14.78;;;;;;;23.77;21.97;102082.41;1708011;84;20913;-80
2022/05/06 06:25:07;;;;;;;21.17;12.53;;;;;;;23.85;21.79;102089.22;1709663;84;21386;-79
2022/05/06 06:27:36;;;;;;;22.60;11.85;;;;;;;23.94;21.75;102080.81;1710945;83;21267;-78
2022/05/06 06:30:05;;;;;;;18.65;12.07;;;;;;;24.19;20.97;102091.42;1710510;84;21027;-77
2022/05/06 06:32:33;;;;;;;18.55;12.18;;;;;;;24.27;20.90;102090.18;1709498;84;20877;-80
2022/05/06 06:35:02;;;;;;;24.55;11.90;;;;;;;24.41;20.84;102096.42;1690887;83;20924;-79
2022/05/06 06:37:43;;;;;;;21.95;12.37;;;;;;;24.55;20.94;102088.42;1709046;84;20838;-80
2022/05/06 06:40:11;;;;;;;18.30;10.63;;;;;;;24.72;21.18;102087.27;1709769;84;21207;-79
2022/05/06 06:42:41;;;;;;;13.00;9.00;;;;;;;24.83;21.38;102092.44;1669264;84;20996;-78
2022/05/06 06:45:11;;;;;;;;;;;;;;;25.07;20.17;102093.22;1711431;84;21391;-79
2022/05/06 06:47:55;;;;;;;15.23;9.63;;;;;;;25.20;19.95;102083.48;1707879;84;20117;-79
2022/05/06 06:50:32;;;;;;;16.27;10.18;;;;;;;25.31;20.12;102091.82;1708861;83;20940;-80
2022/05/06 06:53:15;;;;;;;;;;;;;;;25.37;20.08;102093.40;1710765;82;21958;-78
2022/05/06 06:55:46;;;;;;;18.67;9.53;;;;;;;25.39;19.73;102089.19;1709262;84;20122;-78
2022/05/06 06:58:13;;;;;;;14.53;8.70;;;;;;;25.39;19.54;102086.03;1709348;84;20940;-79
2022/05/06 07:00:42;;;;;;;13.70;9.03;;;;;;;25.53;20.20;102087.83;1709020;83;20913;-78
2022/05/06 07:03:11;;;;;;;14.90;9.53;;;;;;;25.75;19.29;102090.53;1709257;83;20956;-79
2022/05/06 07:11:52;;;;;;;13.22;9.13;;;;;;;25.83;19.40;102090.10;1709104;83;21176;-80
2022/05/06 07:13:41;;;;;;;12.85;8.50;;;;;;;26.12;20.08;102086.77;1709525;84;20869;-79
2022/05/06 07:16:08;;;;;;;13.78;7.67;;;;;;;26.31;19.39;102083.03;1709090;84;21008;-79
2022/05/06 07:18:34;;;;;;;18.15;8.90;;;;;;;26.51;19.22;102069.67;1709548;84;21111;-79
2022/05/06 07:21:01;;;;;;;15.10;9.13;;;;;;;26.64;19.01;102079.52;1709003;84;20965;-81
2022/05/06 07:23:27;;;;;;;11.85;7.40;;;;;;;26.79;19.20;102081.57;1709589;84;21082;-78
2022/05/06 07:25:55;;;;;;;10.93;6.45;;;;;;;26.94;18.24;102073.20;1708417;83;21413;-80
2022/05/06 07:28:22;;;;;;;12.98;7.03;;;;;;;27.13;18.02;102082.02;1709628;84;20940;-80
2022/05/06 07:30:48;;;;;;;13.98;8.08;;;;;;;27.34;17.81;102072.13;1709465;84;21143;-79
2022/05/06 07:33:15;;;;;;;11.40;6.70;;;;;;;27.46;17.47;102085.62;1702588;84;21019;-80
2022/05/06 07:35:41;;;;;;;9.15;4.62;;;;;;;27.34;17.30;102072.13;1701312;83;20945;-78
2022/05/06 07:38:10;;;;;;;11.35;6.03;;;;;;;27.23;17.26;102068.74;1701287;84;20956;-80
2022/05/06 07:40:37;;;;;;;8.65;5.90;;;;;;;27.16;17.19;102067.70;1701413;83;20964;-80
2022/05/06 07:43:03;;;;;;;9.83;7.03;;;;;;;27.05;17.59;102070.70;1700966;83;21199;-79
2022/05/06 07:45:30;;;;;;;10.53;6.42;;;;;;;26.96;17.63;102068.50;1701048;83;21036;-79
2022/05/06 07:47:57;;;;;;;9.13;5.47;;;;;;;26.99;18.69;102070.88;1704610;83;20992;-80
2022/05/06 07:50:25;;;;;;;7.20;4.10;;;;;;;27.16;17.64;102064.17;1701024;83;20897;-79
2022/05/06 07:52:52;;;;;;;5.92;3.50;;;;;;;27.27;16.77;102069.27;1701144;83;21509;-78
2022/05/06 07:55:19;;;;;;;9.18;5.03;;;;;;;27.21;16.55;102054.63;1701386;84;21801;-79
2022/05/06 07:57:46;;;;;;;10.43;5.40;;;;;;;27.27;17.25;102059.32;1701132;83;20945;-78
2022/05/06 08:00:14;;;;;;;6.83;3.87;;;;;;;27.44;17.39;102062.05;1701182;83;20894;-79
2022/05/06 08:05:28;;;;;;;9.08;4.87;;;;;;;27.45;16.59;102057.81;1701257;83;20984;-79
2022/05/06 08:07:56;;;;;;;12.65;5.10;;;;;;;27.21;16.91;102047.89;1701059;84;21278;-79
2022/05/06 08:10:23;;;;;;;9.38;4.47;;;;;;;26.93;16.75;102055.38;1701403;83;20941;-78
2022/05/06 08:12:49;;;;;;;17.80;5.37;;;;;;;26.77;17.43;102056.19;1701904;83;20957;-78
2022/05/06 08:15:16;;;;;;;8.55;4.35;;;;;;;26.75;17.76;102052.81;1701061;83;20980;-79
2022/05/06 08:17:43;;;;;;;6.85;4.08;;;;;;;26.88;17.31;102057.73;1701279;83;21428;-80
2022/05/06 08:20:10;;;;;;;7.17;4.22;;;;;;;27.01;18.33;102049.16;1701117;83;21257;-78
2022/05/06 08:22:37;;;;;;;9.85;5.28;;;;;;;27.22;16.89;102044.69;1700993;84;20897;-78
2022/05/06 08:25:07;;;;;;;6.80;4.15;;;;;;;27.25;17.16;102047.87;1700925;84;21008;-79
2022/05/06 08:27:39;;;;;;;10.20;5.10;;;;;;;27.27;17.08;102048.55;1701069;83;21036;-79
2022/05/06 08:30:06;;;;;;;9.00;4.20;;;;;;;27.39;17.32;102052.25;1700988;84;21040;-79
2022/05/06 08:32:33;;;;;;;8.53;4.55;;;;;;;27.60;17.60;102047.20;1701065;83;21231;-80
2022/05/06 08:34:59;;;;;;;6.55;3.90;;;;;;;27.79;17.20;102043.33;1701063;83;21502;-79
2022/05/06 08:37:26;;;;;;;5.00;3.65;;;;;;;27.89;17.29;102043.16;1701083;84;20961;-79
2022/05/06 08:39:52;;;;;;;8.48;4.67;;;;;;;28.05;16.65;102043.11;1701330;84;20993;-79
2022/05/06 08:42:19;;;;;;;9.40;4.22;;;;;;;28.15;16.50;102049.67;1701050;83;20949;-80
2022/05/06 08:53:03;;;;;;;8.70;4.28;;;;;;;27.97;16.07;102040.45;1701000;83;20945;-78
2022/05/06 08:55:30;;;;;;;8.13;4.53;;;;;;;27.79;16.47;102046.50;1701552;83;20858;-80
2022/05/06 08:57:58;;;;;;;7.72;4.10;;;;;;;27.75;16.45;102047.85;1701083;83;20886;-79
2022/05/06 09:00:26;;;;;;;6.53;3.92;;;;;;;27.77;15.89;102040.44;1701095;83;21482;-79
2022/05/06 09:02:52;;;;;;;5.97;4.40;;;;;;;27.69;17.20;102043.48;1700929;83;20949;-80
2022/05/06 09:05:20;;;;;;;5.95;3.62;;;;;;;27.80;15.91;102032.86;1701204;84;20913;-79
2022/05/06 09:08:02;;;;;;;13.22;3.55;;;;;;;27.68;16.01;102036.91;1701093;83;20988;-80
2022/05/06 09:10:30;;;;;;;7.92;4.08;;;;;;;27.62;15.62;102044.35;1701125;83;21178;-80
2022/05/06 09:13:03;;;;;;;9.43;4.00;;;;;;;27.44;15.58;102043.19;1700930;83;20953;-80
2022/05/06 09:18:22;;;;;;;5.62;4.47;;;;;;;27.36;16.48;102033.74;1701061;84;20945;-79
2022/05/06 09:20:50;;;;;;;6.40;4.37;;;;;;;27.58;15.75;102053.27;1701031;83;21458;-79
2022/05/06 09:23:25;;;;;;;8.70;4.25;;;;;;;27.43;15.97;102045.02;1701287;84;21147;-80
2022/05/06 09:25:53;;;;;;;8.48;4.62;;;;;;;27.37;17.16;102036.76;1700849;83;20941;-81
2022/05/06 09:28:33;;;;;;;8.98;5.33;;;;;;;27.56;15.98;102047.72;1701282;83;20890;-79
2022/05/06 09:31:03;;;;;;;8.55;5.92;;;;;;;27.40;16.06;102033.75;1701049;83;20945;-79
2022/05/06 09:33:32;;;;;;;7.47;5.42;;;;;;;27.26;16.43;102028.02;1701802;84;20901;-79
2022/05/06 09:35:59;;;;;;;8.83;5.20;;;;;;;27.26;16.40;102030.71;1701428;84;21804;-78
2022/05/06 09:38:29;;;;;;;6.53;4.97;;;;;;;27.53;16.12;102027.86;1702271;84;20949;-77
2022/05/06 09:40:54;;;;;;;9.45;4.85;;;;;;;27.54;16.17;102020.09;1701198;84;20925;-81
2022/05/06 09:43:20;;;;;;;8.43;4.92;;;;;;;27.39;16.09;102036.09;1701309;84;21411;-79
2022/05/06 09:45:48;;;;;;;11.83;5.53;;;;;;;27.21;16.10;102030.87;1700939;83;20988;-78
2022/05/06 09:48:15;;;;;;;7.47;4.65;;;;;;;27.20;16.02;102023.27;1701022;84;21270;-79
2022/05/06 09:50:46;;;;;;;6.22;4.30;;;;;;;27.18;16.24;102023.09;1701162;83;20929;-79
2022/05/06 09:53:15;;;;;;;6.33;4.47;;;;;;;27.12;16.28;102027.80;1701054;83;20909;-79
2022/05/06 09:55:46;;;;;;;10.60;4.40;;;;;;;27.11;16.87;102022.09;1700917;84;21069;-79
2022/05/06 09:58:14;;;;;;;7.65;4.33;;;;;;;27.24;16.49;102027.86;1701302;84;20945;-80
2022/05/06 10:00:41;;;;;;;8.58;3.83;;;;;;;27.28;16.17;102026.52;1700989;84;21183;-80
2022/05/06 10:03:11;;;;;;;8.73;4.50;;;;;;;27.05;16.36;102022.23;1700851;84;20909;-81
2022/05/06 10:05:39;;;;;;;7.03;4.35;;;;;;;26.83;16.64;102013.78;1700852;83;20909;-78
2022/05/06 10:08:16;;;;;;;6.85;3.90;;;;;;;26.71;16.23;102021.84;1700945;83;20913;-79
2022/05/06 10:10:57;;;;;;;6.12;3.30;;;;;;;26.66;16.63;102015.61;1700921;83;20890;-79
2022/05/06 10:13:24;;;;;;;5.72;3.65;;;;;;;26.72;16.47;102018.64;1700979;84;21175;-78
2022/05/06 10:15:52;;;;;;;5.08;3.60;;;;;;;26.59;16.41;102015.93;1700821;84;20898;-80
2022/05/06 10:18:36;;;;;;;6.70;3.67;;;;;;;26.40;16.87;102021.54;1701239;84;20993;-79
2022/05/06 10:21:07;;;;;;;6.15;3.90;;;;;;;26.29;16.81;102014.59;1701740;83;20913;-79
2022/05/06 10:23:56;;;;;;;10.00;4.25;;;;;;;26.15;16.85;102025.97;1651186;86;20941;-78
2022/05/06 10:26:41;;;;;;;6.35;3.75;;;;;;;26.05;16.95;102010.77;1651157;85;21096;-79
2022/05/06 10:32:49;;;;;;;7.75;4.40;;;;;;;26.39;17.38;102012.63;1684178;84;20995;-79
2022/05/06 10:35:15;;;;;;;5.35;3.50;;;;;;;26.72;16.84;102020.82;1683021;85;21595;-79
2022/05/06 10:37:45;;;;;;;7.72;4.45;;;;;;;26.70;16.46;102008.54;1689963;85;20908;-79
2022/05/06 10:40:30;;;;;;;4.80;3.67;;;;;;;26.70;17.30;102001.30;1689821;83;21281;-80
2022/05/06 10:42:58;;;;;;;6.83;3.62;;;;;;;26.91;16.55;102002.71;1689844;85;21469;-80
2022/05/06 10:45:31;;;;;;;9.48;3.52;;;;;;;26.88;16.57;101991.27;1689904;83;21421;-80
2022/05/06 10:47:57;;;;;;;5.05;2.92;;;;;;;26.71;16.39;101991.41;1690392;85;20904;-78
2022/05/06 10:50:25;;;;;;;4.00;2.98;;;;;;;26.40;16.51;102006.23;1689981;85;20892;-79
2022/05/06 10:52:52;;;;;;;6.30;2.95;;;;;;;26.00;16.41;102002.86;1689805;85;21139;-79
2022/05/06 10:55:20;;;;;;;5.60;2.77;;;;;;;25.86;17.03;102005.62;1690017;85;21541;-79
2022/05/06 10:57:56;;;;;;;5.55;3.08;;;;;;;25.92;17.08;101993.40;1690065;85;21055;-79
2022/05/06 11:00:25;;;;;;;4.45;3.17;;;;;;;25.92;17.22;101991.55;1694505;84;21167;-78
2022/05/06 11:02:52;;;;;;;5.37;3.10;;;;;;;26.00;17.96;101990.77;1710862;84;20885;-82
2022/05/06 11:05:20;;;;;;;3.75;2.12;;;;;;;26.22;17.01;101993.39;1710078;83;21112;-79
2022/05/06 11:07:49;;;;;;;3.92;2.62;;;;;;;26.37;17.09;101990.91;1710018;84;20970;-78
2022/05/06 11:10:22;;;;;;;6.95;3.10;;;;;;;26.43;16.71;101983.03;1710394;84;21057;-79
2022/05/06 11:12:53;;;;;;;5.35;3.00;;;;;;;26.25;17.25;101985.83;1720418;82;20902;-81
2022/05/06 11:15:31;;;;;;;3.37;3.05;;;;;;;26.07;16.88;101985.59;1722692;82;20862;-78
2022/05/06 11:18:01;;;;;;;4.33;2.33;;;;;;;25.99;17.49;101993.09;1722481;82;21222;-77
2022/05/06 11:20:30;;;;;;;5.87;3.02;;;;;;;26.00;17.43;101987.56;1722517;82;20882;-78
2022/05/06 11:23:05;;;;;;;4.50;2.85;;;;;;;25.83;17.57;101981.72;1722971;82;21381;-79
2022/05/06 11:25:38;;;;;;;5.40;3.08;;;;;;;25.84;17.55;101972.17;1722818;83;20966;-79
2022/05/06 11:28:13;;;;;;;6.67;2.65;;;;;;;25.68;17.62;101966.70;1722988;82;20894;-77
2022/05/06 11:30:44;;;;;;;6.08;2.67;;;;;;;25.49;17.90;101966.91;1722884;82;21253;-79
2022/05/06 11:33:31;;;;;;;8.10;2.98;;;;;;;25.32;17.69;101973.48;1728137;81;20896;-79
2022/05/06 11:36:03;;;;;;;5.00;2.72;;;;;;;25.00;18.15;101972.69;1740947;81;21071;-79
2022/05/06 11:38:36;;;;;;;;;;;;;;;24.74;18.28;101968.06;1705152;84;20921;-79
2022/05/06 11:41:12;;;;;;;7.75;3.08;;;;;;;24.34;18.17;101963.91;1703293;84;20093;-79
2022/05/06 11:43:40;;;;;;;6.00;3.90;;;;;;;24.02;19.00;101953.64;1704366;84;21173;-78
2022/05/06 11:48:09;;;;;;;7.28;3.15;;;;;;;23.82;19.06;101952.88;1799941;79;22701;-79
2022/05/06 11:50:38;;;;;;;4.33;2.60;;;;;;;23.65;19.17;101954.44;1758410;80;21450;-78
2022/05/06 11:53:15;;;;;;;6.25;3.10;;;;;;;23.42;18.78;101951.25;1758344;81;21263;-77
2022/05/06 11:55:43;;;;;;;6.00;3.50;;;;;;;23.12;19.11;101950.92;1758328;80;20912;-79
2022/05/06 11:58:14;;;;;;;6.87;3.45;;;;;;;22.74;19.75;101943.20;1758473;80;20951;-78
2022/05/06 12:00:41;;;;;;;7.22;3.55;;;;;;;22.48;20.00;101939.74;1758056;80;21472;-79
2022/05/06 12:03:09;;;;;;;8.25;3.45;;;;;;;22.31;20.19;101931.05;1758500;80;20869;-80
2022/05/06 12:05:38;;;;;;;6.75;3.75;;;;;;;22.03;19.86;101938.81;1758536;80;21818;-79
2022/05/06 12:08:07;;;;;;;6.72;3.45;;;;;;;21.69;20.91;101923.53;1758525;80;21418;-78
2022/05/06 12:10:38;;;;;;;8.53;4.03;;;;;;;21.53;20.73;101920.00;1758602;80;21007;-78
2022/05/06 12:13:10;;;;;;;9.58;4.10;;;;;;;21.48;21.13;101920.41;1758329;80;21386;-80